Home   Weather   Oxford   Past weeks
Flag for USA

Past Weather in Oxford, Ohio, USA — January 2018

Currently: 57 °F. Sunny. (Weather station: Cincinnati Municipal Airport Lunken Field, USA). See more current weather

January 2018 Weather in Oxford — Graph

°F

High & Low Weather Summary for January 2018

 TemperatureHumidityPressure
High64 °F (Jan 10, 2:00 pm)100% (Jan 8, 7:53 pm)30.80 "Hg (Jan 8, 7:53 pm)
Low-4 °F (Jan 2, 6:53 am)25% (Jan 26, 2:53 pm)29.57 "Hg (Jan 22, 9:53 pm)
Average29 °F74%30.29 "Hg
* Reported Jan 1 12:53 am — Jan 31 11:53 pm, Oxford. Weather by CustomWeather, © 2022

Note: Actual official high and low records may vary slightly from our data, if they occured in-between our weather recording intervals... More about our weather records

Oxford Weather History for January 1, 2018

Scroll right to see more
 ConditionsComfort  
Time TempWeatherWind HumidityBarometerVisibility
12:53 am
Mon, Jan 1
7 °FClear.5 mph79%30.63 "Hg10 mi
1:53 am6 °FClear.7 mph79%30.64 "Hg10 mi
2:53 am6 °FClear.6 mph76%30.65 "Hg10 mi
3:53 am4 °FClear.3 mph76%30.66 "Hg10 mi
4:53 am4 °FPassing clouds.5 mph76%30.66 "Hg10 mi
5:03 am5 °FPassing clouds.5 mph72%30.63 "Hg10 mi
5:26 am4 °FPassing clouds.6 mph76%30.64 "Hg10 mi
5:53 am5 °FOvercast.5 mph72%30.68 "Hg10 mi
6:38 am4 °FPassing clouds.7 mph73%30.66 "Hg10 mi
6:53 am4 °FClear.3 mph73%30.69 "Hg10 mi
7:53 am3 °FClear.6 mph76%30.71 "Hg10 mi
8:53 am5 °FSunny.6 mph69%30.72 "Hg10 mi
9:53 am6 °FSunny.8 mph73%30.73 "Hg10 mi
10:53 am9 °FSunny.8 mph58%30.75 "Hg10 mi
11:53 am11 °FSunny.8 mph53%30.75 "Hg10 mi
12:53 pm12 °FSunny.10 mph48%30.73 "Hg10 mi
1:53 pm13 °FSunny.10 mph44%30.71 "Hg10 mi
2:53 pm13 °FSunny.9 mph42%30.71 "Hg10 mi
3:53 pm13 °FSunny.12 mph42%30.71 "Hg10 mi
4:53 pm12 °FSunny.9 mph46%30.73 "Hg10 mi
5:53 pm9 °FClear.6 mph50%30.75 "Hg10 mi
6:53 pm6 °FClear.6 mph57%30.77 "Hg10 mi
7:53 pm4 °FClear.7 mph60%30.78 "Hg10 mi
8:53 pm3 °FClear.6 mph62%30.78 "Hg10 mi
9:53 pm3 °FClear.5 mph60%30.78 "Hg10 mi
10:53 pm2 °FClear.3 mph60%30.80 "Hg10 mi
11:53 pm1 °FClear.6 mphN/A30.80 "Hg10 mi
Weather by CustomWeather, © 2022

See weather overview